createdAt,value
2022-08-27T00:01:47.092Z,4.63
2022-08-27T00:04:09.141Z,6.00
2022-08-27T00:06:31.808Z,4.90
2022-08-27T00:08:54.435Z,5.50
2022-08-27T00:11:19.526Z,4.63
2022-08-27T00:13:41.876Z,7.27
2022-08-27T00:16:08.208Z,8.27
2022-08-27T00:18:30.486Z,2.87
2022-08-27T00:20:52.377Z,6.93
2022-08-27T00:23:14.342Z,12.23
2022-08-27T00:25:36.264Z,5.50
2022-08-27T00:27:58.117Z,6.27
2022-08-27T00:30:23.317Z,9.07
2022-08-27T00:32:45.491Z,8.10
2022-08-27T00:35:08.664Z,6.50
2022-08-27T00:37:30.546Z,7.27
2022-08-27T00:39:53.687Z,7.83
2022-08-27T00:42:16.061Z,4.50
2022-08-27T00:44:38.934Z,4.43
2022-08-27T00:47:07.617Z,6.30
2022-08-27T00:49:40.441Z,7.73
2022-08-27T00:52:24.206Z,6.67
2022-08-27T00:54:47.142Z,6.73
2022-08-27T00:57:09.356Z,6.80
2022-08-27T00:59:32.937Z,8.60
2022-08-27T01:02:14.532Z,4.53
2022-08-27T01:04:40.021Z,9.63
2022-08-27T01:07:03.939Z,6.90
2022-08-27T01:09:27.139Z,7.43
2022-08-27T01:11:49.908Z,7.47
2022-08-27T01:14:12.256Z,6.20
2022-08-27T01:16:40.236Z,7.27
2022-08-27T01:19:08.271Z,4.90
2022-08-27T01:21:41.461Z,7.20
2022-08-27T01:24:59.175Z,5.83
2022-08-27T01:27:27.174Z,8.17
2022-08-27T01:29:49.360Z,6.07
2022-08-27T01:32:21.569Z,5.67
2022-08-27T01:34:44.190Z,6.27
2022-08-27T01:37:07.079Z,5.50
2022-08-27T01:39:30.441Z,8.07
2022-08-27T01:41:52.841Z,16.93
2022-08-27T01:44:16.306Z,8.27
2022-08-27T01:46:40.711Z,6.93
2022-08-27T01:49:02.618Z,8.63
2022-08-27T01:51:24.636Z,7.47
2022-08-27T01:53:47.578Z,6.47
2022-08-27T01:56:09.710Z,5.43
2022-08-27T01:58:33.547Z,5.50
2022-08-27T02:01:00.762Z,5.72
2022-08-27T02:03:22.860Z,5.93
2022-08-27T02:05:47.842Z,8.00
2022-08-27T02:08:09.892Z,6.30
2022-08-27T02:10:37.526Z,6.50
2022-08-27T02:13:00.414Z,7.63
2022-08-27T02:15:24.244Z,7.13
2022-08-27T02:17:47.883Z,7.47
2022-08-27T02:20:11.046Z,6.40
2022-08-27T02:22:33.093Z,8.27
2022-08-27T02:24:55.062Z,7.57
2022-08-27T02:27:17.173Z,6.27
2022-08-27T02:29:39.213Z,8.93
2022-08-27T02:32:02.057Z,6.77
2022-08-27T02:34:23.891Z,8.13
2022-08-27T02:36:46.716Z,7.33
2022-08-27T02:39:08.792Z,8.60
2022-08-27T02:41:31.703Z,9.07
2022-08-27T02:43:53.560Z,7.97
2022-08-27T02:46:15.718Z,9.43
2022-08-27T02:48:40.039Z,7.93
2022-08-27T02:51:02.129Z,13.00
2022-08-27T02:53:24.067Z,7.50
2022-08-27T02:55:46.985Z,6.70
2022-08-27T02:58:09.787Z,7.17
2022-08-27T03:00:33.608Z,9.20
2022-08-27T03:02:57.670Z,5.80
2022-08-27T03:05:20.714Z,10.57
2022-08-27T03:07:42.926Z,8.87
2022-08-27T03:10:06.880Z,8.20
2022-08-27T03:12:28.715Z,11.70
2022-08-27T03:14:51.020Z,11.33
2022-08-27T03:17:31.334Z,9.03
2022-08-27T03:19:53.413Z,8.83
2022-08-27T03:22:15.264Z,8.50
2022-08-27T03:24:37.103Z,6.23
2022-08-27T03:27:02.326Z,7.93
2022-08-27T03:29:24.186Z,9.17
2022-08-27T03:31:46.463Z,8.97
2022-08-27T03:34:09.636Z,6.27
2022-08-27T03:36:31.776Z,6.60
2022-08-27T03:38:54.101Z,8.97
2022-08-27T03:41:16.319Z,7.23
2022-08-27T03:43:38.355Z,8.43
2022-08-27T03:46:01.334Z,7.43
2022-08-27T03:48:24.041Z,8.73
2022-08-27T03:50:49.177Z,10.60
2022-08-27T03:53:11.605Z,8.90
2022-08-27T03:55:33.721Z,8.50
2022-08-27T03:57:55.766Z,6.70
2022-08-27T04:00:17.877Z,11.23
2022-08-27T04:02:42.421Z,10.53
2022-08-27T04:07:28.176Z,10.47
2022-08-27T04:09:50.228Z,7.47
2022-08-27T04:12:12.176Z,8.87
2022-08-27T04:14:34.716Z,11.27
2022-08-27T04:16:57.546Z,7.20
2022-08-27T04:19:20.535Z,8.60
2022-08-27T04:21:44.044Z,7.38
2022-08-27T04:24:06.327Z,8.83
2022-08-27T04:26:29.717Z,10.77
2022-08-27T04:28:51.593Z,9.33
2022-08-27T04:31:16.890Z,8.97
2022-08-27T04:33:38.928Z,7.97
2022-08-27T04:36:07.179Z,8.43
2022-08-27T04:38:29.096Z,10.77
2022-08-27T04:41:09.516Z,12.50
2022-08-27T04:43:31.557Z,9.70
2022-08-27T04:45:53.425Z,10.40
2022-08-27T04:48:18.830Z,9.50
2022-08-27T04:50:47.288Z,8.83
2022-08-27T04:53:11.776Z,8.27
2022-08-27T04:55:33.560Z,9.85
2022-08-27T04:57:55.502Z,11.27
2022-08-27T05:00:17.496Z,10.57
2022-08-27T05:02:39.310Z,10.23
2022-08-27T05:05:01.160Z,10.53
2022-08-27T05:07:23.048Z,10.20
2022-08-27T05:09:44.916Z,8.43
2022-08-27T05:12:08.092Z,10.27
2022-08-27T05:14:30.038Z,9.40
2022-08-27T05:16:52.080Z,13.37
2022-08-27T05:19:15.023Z,11.50
2022-08-27T05:21:40.251Z,9.03
2022-08-27T05:24:06.612Z,11.07
2022-08-27T05:26:30.200Z,10.20
2022-08-27T05:28:52.256Z,8.77
2022-08-27T05:31:17.038Z,8.30
2022-08-27T05:33:40.512Z,10.70
2022-08-27T05:36:02.906Z,11.33
2022-08-27T05:38:29.073Z,9.70
2022-08-27T05:40:51.439Z,11.87
2022-08-27T05:43:14.419Z,10.27
2022-08-27T05:45:49.689Z,9.77
2022-08-27T05:48:17.041Z,8.23
2022-08-27T05:50:44.659Z,12.68
2022-08-27T05:53:07.776Z,9.17
2022-08-27T05:55:29.659Z,8.07
2022-08-27T05:57:51.703Z,9.63
2022-08-27T06:00:32.580Z,9.80
2022-08-27T06:02:54.471Z,10.77
2022-08-27T06:05:16.898Z,8.70
2022-08-27T06:07:38.904Z,8.50
2022-08-27T06:10:01.011Z,7.87
2022-08-27T06:12:27.998Z,9.80
2022-08-27T06:14:50.174Z,9.03
2022-08-27T06:17:11.986Z,10.50
2022-08-27T06:19:34.865Z,8.47
2022-08-27T06:22:00.816Z,11.67
2022-08-27T06:24:32.065Z,7.97
2022-08-27T06:26:54.164Z,7.87
2022-08-27T06:29:17.026Z,9.63
2022-08-27T06:31:40.645Z,10.07
2022-08-27T06:34:07.715Z,9.73
2022-08-27T06:36:31.042Z,9.93
2022-08-27T06:38:54.442Z,10.83
2022-08-27T06:41:23.680Z,9.60
2022-08-27T06:43:46.941Z,5.47
2022-08-27T06:46:15.139Z,10.43
2022-08-27T06:48:38.290Z,8.13
2022-08-27T06:51:01.019Z,10.27
2022-08-27T06:53:24.552Z,7.37
2022-08-27T06:55:49.537Z,7.73
2022-08-27T06:58:11.961Z,7.47
2022-08-27T07:00:34.044Z,10.47
2022-08-27T07:02:56.277Z,8.60
2022-08-27T07:05:19.060Z,9.30
2022-08-27T07:07:46.744Z,8.80
2022-08-27T07:10:11.119Z,8.60
2022-08-27T07:12:33.323Z,9.60
2022-08-27T07:14:55.253Z,6.63
2022-08-27T07:17:18.673Z,9.83
2022-08-27T07:19:41.467Z,7.37
2022-08-27T07:22:03.319Z,6.37
2022-08-27T07:24:25.407Z,8.37
2022-08-27T07:26:47.372Z,6.57
2022-08-27T07:29:15.081Z,4.97
2022-08-27T07:31:38.867Z,4.90
2022-08-27T07:34:00.924Z,5.07
2022-08-27T07:36:24.251Z,6.55
2022-08-27T07:38:52.730Z,6.50
2022-08-27T07:41:19.809Z,6.70
2022-08-27T07:44:00.636Z,4.47
2022-08-27T07:46:24.229Z,4.38
2022-08-27T07:48:46.157Z,3.90
2022-08-27T07:51:17.287Z,5.57
2022-08-27T07:53:39.103Z,5.80
2022-08-27T07:56:06.894Z,3.17
2022-08-27T07:58:29.064Z,4.40
2022-08-27T08:00:51.077Z,4.55
2022-08-27T08:03:13.376Z,4.72
2022-08-27T08:05:35.351Z,4.55
2022-08-27T08:07:57.244Z,6.00
2022-08-27T08:10:22.380Z,3.50
2022-08-27T08:12:44.394Z,4.20
2022-08-27T08:15:11.957Z,5.80
2022-08-27T08:17:35.825Z,5.32
2022-08-27T08:20:18.440Z,5.85
2022-08-27T08:22:40.156Z,6.38
2022-08-27T08:25:02.219Z,4.50
2022-08-27T08:27:24.730Z,3.75
2022-08-27T08:29:48.304Z,2.95
2022-08-27T08:32:10.136Z,5.40
2022-08-27T08:34:32.297Z,5.10
2022-08-27T08:36:55.233Z,5.57
2022-08-27T08:39:19.738Z,4.05
2022-08-27T08:41:52.520Z,5.40
2022-08-27T08:44:46.241Z,3.97
2022-08-27T08:47:16.837Z,4.53
2022-08-27T08:50:29.456Z,3.45
2022-08-27T08:53:09.682Z,3.83
2022-08-27T08:55:45.829Z,4.35
2022-08-27T08:58:30.380Z,4.65
2022-08-27T09:01:01.239Z,4.88
2022-08-27T09:03:23.819Z,2.75
2022-08-27T09:05:59.291Z,4.20
2022-08-27T09:08:36.751Z,4.15
2022-08-27T09:11:26.051Z,4.03
2022-08-27T09:13:59.888Z,4.50
2022-08-27T09:16:21.899Z,3.88
2022-08-27T09:18:45.839Z,5.50
2022-08-27T09:21:35.376Z,5.30
2022-08-27T09:24:03.192Z,4.50
2022-08-27T09:26:29.381Z,5.97
2022-08-27T09:29:18.941Z,4.20
2022-08-27T09:31:41.008Z,8.40
2022-08-27T09:34:05.509Z,4.35
2022-08-27T09:39:04.189Z,3.70
2022-08-27T09:41:36.080Z,4.25
2022-08-27T09:44:00.471Z,2.72
2022-08-27T09:46:26.963Z,4.72
2022-08-27T09:48:49.332Z,6.75
2022-08-27T09:51:29.008Z,4.80
2022-08-27T09:53:57.151Z,3.45
2022-08-27T09:56:34.936Z,5.75
2022-08-27T09:59:12.869Z,5.38
2022-08-27T10:02:01.010Z,3.22
2022-08-27T10:04:50.290Z,5.80
2022-08-27T10:07:30.884Z,5.43
2022-08-27T10:10:01.736Z,3.90
2022-08-27T10:12:59.049Z,2.58
2022-08-27T10:15:24.521Z,4.28
2022-08-27T10:18:17.677Z,3.10
2022-08-27T10:20:54.654Z,4.57
2022-08-27T10:23:45.782Z,4.97
2022-08-27T10:26:16.473Z,6.72
2022-08-27T10:29:08.240Z,4.35
2022-08-27T10:32:16.606Z,5.25
2022-08-27T10:34:52.744Z,3.65
2022-08-27T10:37:52.734Z,3.35
2022-08-27T10:40:32.982Z,4.55
2022-08-27T10:43:52.334Z,4.40
2022-08-27T10:46:50.669Z,3.00
2022-08-27T10:50:12.517Z,4.50
2022-08-27T10:53:32.936Z,3.58
2022-08-27T10:56:14.026Z,4.18
2022-08-27T10:59:33.461Z,2.67
2022-08-27T11:02:28.248Z,3.97
2022-08-27T11:04:57.580Z,3.63
2022-08-27T11:07:38.357Z,4.32
2022-08-27T11:10:08.113Z,2.60
2022-08-27T11:12:37.449Z,2.03
2022-08-27T11:15:19.425Z,2.95
2022-08-27T11:17:53.525Z,4.30
2022-08-27T11:20:42.502Z,3.92
2022-08-27T11:23:17.536Z,5.22
2022-08-27T11:25:55.706Z,5.57
2022-08-27T11:28:30.416Z,3.10
2022-08-27T11:31:17.587Z,3.60
2022-08-27T11:34:03.373Z,4.30
2022-08-27T11:36:47.672Z,4.13
2022-08-27T11:39:21.899Z,2.45
2022-08-27T11:42:20.699Z,3.03
2022-08-27T11:44:46.982Z,4.47
2022-08-27T11:47:20.552Z,4.80
2022-08-27T11:50:19.876Z,3.67
2022-08-27T11:53:01.145Z,3.15
2022-08-27T11:55:29.102Z,3.50
2022-08-27T11:58:22.990Z,4.43
2022-08-27T12:00:46.860Z,2.60
2022-08-27T12:03:35.453Z,4.75
2022-08-27T12:05:58.012Z,4.35
2022-08-27T12:08:24.124Z,2.88
2022-08-27T12:11:23.356Z,3.38
2022-08-27T12:14:04.497Z,3.47
2022-08-27T12:17:00.329Z,3.55
2022-08-27T12:19:36.481Z,4.82
2022-08-27T12:22:59.096Z,4.65
2022-08-27T12:25:23.067Z,3.90
2022-08-27T12:28:03.375Z,4.28
2022-08-27T12:30:39.305Z,6.13
2022-08-27T12:33:35.405Z,4.05
2022-08-27T12:36:09.371Z,4.13
2022-08-27T12:38:46.290Z,4.78
2022-08-27T12:41:14.184Z,3.78
2022-08-27T12:43:43.486Z,3.03
2022-08-27T12:46:13.956Z,3.85
2022-08-27T12:48:47.053Z,3.10
2022-08-27T12:51:24.552Z,4.60
2022-08-27T12:54:19.338Z,3.20
2022-08-27T12:57:23.363Z,3.92
2022-08-27T13:00:14.090Z,3.80
2022-08-27T13:03:11.290Z,2.92
2022-08-27T13:05:41.143Z,3.72
2022-08-27T13:08:03.534Z,5.57
2022-08-27T13:10:31.525Z,4.13
2022-08-27T13:13:11.404Z,5.25
2022-08-27T13:15:35.169Z,2.85
2022-08-27T13:17:57.283Z,3.70
2022-08-27T13:20:26.298Z,5.93
2022-08-27T13:22:49.405Z,5.53
2022-08-27T13:25:31.501Z,4.97
2022-08-27T13:28:08.163Z,3.30
2022-08-27T13:30:36.299Z,3.45
2022-08-27T13:33:00.453Z,6.05
2022-08-27T13:35:23.820Z,4.05
2022-08-27T13:37:53.402Z,3.53
2022-08-27T13:40:36.639Z,4.22
2022-08-27T13:43:08.738Z,4.00
2022-08-27T13:45:31.560Z,4.03
2022-08-27T13:47:54.571Z,4.70
2022-08-27T13:50:30.338Z,3.72
2022-08-27T13:53:20.469Z,3.85
2022-08-27T13:55:49.461Z,4.95
2022-08-27T13:58:30.442Z,4.35
2022-08-27T14:00:53.576Z,6.00
2022-08-27T14:03:35.043Z,3.30
2022-08-27T14:05:57.357Z,4.30
2022-08-27T14:08:20.176Z,5.80
2022-08-27T14:10:57.895Z,5.95
2022-08-27T14:13:25.221Z,3.42
2022-08-27T14:15:51.803Z,5.35
2022-08-27T14:18:57.242Z,3.17
2022-08-27T14:21:14.868Z,6.55
2022-08-27T14:23:36.794Z,6.65
2022-08-27T14:26:01.495Z,5.82
2022-08-27T14:30:45.561Z,4.22
2022-08-27T14:33:07.725Z,4.18
2022-08-27T14:35:35.667Z,6.25
2022-08-27T14:38:01.255Z,4.32
2022-08-27T14:40:23.385Z,4.95
2022-08-27T14:42:45.332Z,8.00
2022-08-27T14:45:08.926Z,8.77
2022-08-27T14:47:33.801Z,7.07
2022-08-27T14:49:55.839Z,3.05
2022-08-27T14:52:17.662Z,4.30
2022-08-27T14:54:41.322Z,5.03
2022-08-27T14:57:05.727Z,4.65
2022-08-27T15:01:50.510Z,5.25
2022-08-27T15:04:12.676Z,6.25
2022-08-27T15:06:34.604Z,3.83
2022-08-27T15:08:56.655Z,4.70
2022-08-27T15:11:26.717Z,4.78
2022-08-27T15:13:49.010Z,4.80
2022-08-27T15:16:27.282Z,6.28
2022-08-27T15:18:53.593Z,6.05
2022-08-27T15:21:23.049Z,4.63
2022-08-27T15:23:49.622Z,3.55
2022-08-27T15:26:11.493Z,5.22
2022-08-27T15:28:37.143Z,5.55
2022-08-27T15:30:59.089Z,6.93
2022-08-27T15:33:21.221Z,5.05
2022-08-27T15:35:43.280Z,5.75
2022-08-27T15:38:05.276Z,3.13
2022-08-27T15:40:32.070Z,6.70
2022-08-27T15:43:00.478Z,5.07
2022-08-27T15:45:25.728Z,3.63
2022-08-27T15:47:49.528Z,5.43
2022-08-27T15:50:11.693Z,5.28
2022-08-27T15:52:40.209Z,5.78
2022-08-27T15:55:04.770Z,5.97
2022-08-27T15:57:26.608Z,4.90
2022-08-27T15:59:49.731Z,4.07
2022-08-27T16:02:23.739Z,4.22
2022-08-27T16:04:49.209Z,4.25
2022-08-27T16:07:11.844Z,6.03
2022-08-27T16:09:33.799Z,3.65
2022-08-27T16:11:55.801Z,3.65
2022-08-27T16:14:17.680Z,5.22
2022-08-27T16:16:42.888Z,5.07
2022-08-27T16:19:06.564Z,5.38
2022-08-27T16:21:29.156Z,5.30
2022-08-27T16:23:51.323Z,5.43
2022-08-27T16:26:13.453Z,3.05
2022-08-27T16:28:35.390Z,3.90
2022-08-27T16:30:58.512Z,5.40
2022-08-27T16:33:22.120Z,5.90
2022-08-27T16:35:44.151Z,6.90
2022-08-27T16:38:06.499Z,4.47
2022-08-27T16:40:28.953Z,4.57
2022-08-27T16:42:52.236Z,5.30
2022-08-27T16:45:17.383Z,6.13
2022-08-27T16:47:59.473Z,6.03
2022-08-27T16:50:36.457Z,4.88
2022-08-27T16:52:58.539Z,4.78
2022-08-27T16:55:20.337Z,5.20
2022-08-27T16:57:42.320Z,3.92
2022-08-27T17:00:06.001Z,3.15
2022-08-27T17:02:34.865Z,5.40
2022-08-27T17:05:12.289Z,5.80
2022-08-27T17:07:39.156Z,6.25
2022-08-27T17:10:05.634Z,4.05
2022-08-27T17:12:27.964Z,3.10
2022-08-27T17:14:51.242Z,5.57
2022-08-27T17:17:13.194Z,9.02
2022-08-27T17:19:37.129Z,6.28
2022-08-27T17:22:01.686Z,6.22
2022-08-27T17:26:45.308Z,4.13
2022-08-27T17:29:07.415Z,7.72
2022-08-27T17:31:41.576Z,4.70
2022-08-27T17:34:07.005Z,6.90
2022-08-27T17:36:31.640Z,4.07
2022-08-27T17:38:56.027Z,4.68
2022-08-27T17:41:34.484Z,5.85
2022-08-27T17:44:01.869Z,5.38
2022-08-27T17:46:26.389Z,5.68
2022-08-27T17:48:48.306Z,4.90
2022-08-27T17:51:12.670Z,4.80
2022-08-27T17:53:34.556Z,4.80
2022-08-27T17:55:56.394Z,4.43
2022-08-27T17:58:19.782Z,4.70
2022-08-27T18:00:44.963Z,4.55
2022-08-27T18:03:18.009Z,4.82
2022-08-27T18:05:39.975Z,6.43
2022-08-27T18:08:01.962Z,6.68
2022-08-27T18:10:26.222Z,5.63
2022-08-27T18:12:48.775Z,10.32
2022-08-27T18:15:19.244Z,5.07
2022-08-27T18:17:43.280Z,4.22
2022-08-27T18:20:08.125Z,6.40
2022-08-27T18:22:32.379Z,4.10
2022-08-27T18:25:02.453Z,8.07
2022-08-27T18:27:35.140Z,6.35
2022-08-27T18:29:57.993Z,7.28
2022-08-27T18:32:19.839Z,6.32
2022-08-27T18:34:41.628Z,5.95
2022-08-27T18:37:03.641Z,6.45
2022-08-27T18:39:25.650Z,6.57
2022-08-27T18:41:48.297Z,4.82
2022-08-27T18:44:16.948Z,4.57
2022-08-27T18:46:40.024Z,3.72
2022-08-27T18:49:01.988Z,4.45
2022-08-27T18:51:24.022Z,8.93
2022-08-27T18:53:47.690Z,4.78
2022-08-27T18:56:12.476Z,5.68
2022-08-27T18:58:40.124Z,5.22
2022-08-27T19:01:03.481Z,4.15
2022-08-27T19:03:34.836Z,7.65
2022-08-27T19:05:57.475Z,4.95
2022-08-27T19:08:24.019Z,3.03
2022-08-27T19:10:46.026Z,4.00
2022-08-27T19:13:07.955Z,4.57
2022-08-27T19:15:29.948Z,5.53
2022-08-27T19:17:57.656Z,4.18
2022-08-27T19:20:20.098Z,5.20
2022-08-27T19:22:41.896Z,5.47
2022-08-27T19:25:07.255Z,4.70
2022-08-27T19:27:30.815Z,4.40
2022-08-27T19:29:54.110Z,5.20
2022-08-27T19:32:16.883Z,3.85
2022-08-27T19:34:38.943Z,7.70
2022-08-27T19:37:02.808Z,7.03
2022-08-27T19:39:25.141Z,7.63
2022-08-27T19:41:47.066Z,6.00
2022-08-27T19:44:09.187Z,6.57
2022-08-27T19:46:32.827Z,7.70
2022-08-27T19:48:55.546Z,5.97
2022-08-27T19:51:17.804Z,6.60
2022-08-27T19:53:39.870Z,6.13
2022-08-27T19:56:03.446Z,4.30
2022-08-27T19:58:25.411Z,7.17
2022-08-27T20:00:48.170Z,4.22
2022-08-27T20:03:11.122Z,8.50
2022-08-27T20:05:33.416Z,7.25
2022-08-27T20:07:55.461Z,6.53
2022-08-27T20:10:31.667Z,7.38
2022-08-27T20:12:58.919Z,7.95
2022-08-27T20:15:23.493Z,6.30
2022-08-27T20:17:49.971Z,6.25
2022-08-27T20:20:17.737Z,5.03
2022-08-27T20:22:44.779Z,5.85
2022-08-27T20:25:07.850Z,7.25
2022-08-27T20:27:30.084Z,6.85
2022-08-27T20:29:57.195Z,8.07
2022-08-27T20:32:24.025Z,6.13
2022-08-27T20:34:49.851Z,6.57
2022-08-27T20:37:12.151Z,6.22
2022-08-27T20:39:34.299Z,6.55
2022-08-27T20:41:56.142Z,9.48
2022-08-27T20:44:18.045Z,5.93
2022-08-27T20:46:40.067Z,5.60
2022-08-27T20:49:02.050Z,7.53
2022-08-27T20:51:25.729Z,7.65
2022-08-27T20:53:47.771Z,6.25
2022-08-27T20:56:09.635Z,5.28
2022-08-27T20:58:50.385Z,5.05
2022-08-27T21:01:12.844Z,5.70
2022-08-27T21:03:34.934Z,7.35
2022-08-27T21:05:56.926Z,5.43
2022-08-27T21:08:21.735Z,6.40
2022-08-27T21:10:51.404Z,4.72
2022-08-27T21:13:14.939Z,8.32
2022-08-27T21:15:36.803Z,6.82
2022-08-27T21:17:58.732Z,7.00
2022-08-27T21:20:20.790Z,4.03
2022-08-27T21:22:43.927Z,7.03
2022-08-27T21:25:07.063Z,8.45
2022-08-27T21:27:29.025Z,6.28
2022-08-27T21:29:51.016Z,4.23
2022-08-27T21:32:14.758Z,5.83
2022-08-27T21:34:37.073Z,4.78
2022-08-27T21:36:59.389Z,7.27
2022-08-27T21:39:21.393Z,6.53
2022-08-27T21:41:43.395Z,7.37
2022-08-27T21:44:05.638Z,8.47
2022-08-27T21:46:28.403Z,7.70
2022-08-27T21:48:58.690Z,5.60
2022-08-27T21:51:24.655Z,6.10
2022-08-27T21:53:46.675Z,4.60
2022-08-27T21:56:09.255Z,10.07
2022-08-27T21:58:31.413Z,6.27
2022-08-27T22:00:53.493Z,8.20
2022-08-27T22:03:19.304Z,9.03
2022-08-27T22:05:44.451Z,8.60
2022-08-27T22:08:06.927Z,6.93
2022-08-27T22:10:29.804Z,7.63
2022-08-27T22:12:53.059Z,7.55
2022-08-27T22:15:21.135Z,6.40
2022-08-27T22:17:48.291Z,7.75
2022-08-27T22:20:13.284Z,6.83
2022-08-27T22:22:35.418Z,5.63
2022-08-27T22:24:57.363Z,9.17
2022-08-27T22:27:20.107Z,6.67
2022-08-27T22:29:41.913Z,7.30
2022-08-27T22:32:07.504Z,8.23
2022-08-27T22:34:29.707Z,7.30
2022-08-27T22:36:51.854Z,11.13
2022-08-27T22:39:13.773Z,6.43
2022-08-27T22:41:35.700Z,8.40
2022-08-27T22:43:57.942Z,8.27
2022-08-27T22:46:20.055Z,5.47
2022-08-27T22:48:43.533Z,8.03
2022-08-27T22:51:06.279Z,10.50
2022-08-27T22:53:31.207Z,7.33
2022-08-27T22:55:53.123Z,7.03
2022-08-27T22:58:15.223Z,9.40
2022-08-27T23:00:40.304Z,10.53
2022-08-27T23:03:05.482Z,12.13
2022-08-27T23:05:29.252Z,9.63
2022-08-27T23:08:07.720Z,7.63
2022-08-27T23:10:29.911Z,8.33
2022-08-27T23:12:53.774Z,7.27
2022-08-27T23:15:18.558Z,11.25
2022-08-27T23:17:40.843Z,10.97
2022-08-27T23:20:06.486Z,9.20
2022-08-27T23:22:28.812Z,7.20
2022-08-27T23:25:09.202Z,11.37
2022-08-27T23:27:31.433Z,13.27
2022-08-27T23:29:53.309Z,12.50
2022-08-27T23:32:15.387Z,11.70
2022-08-27T23:34:37.345Z,8.17
2022-08-27T23:36:59.153Z,11.70
2022-08-27T23:39:20.986Z,11.33
2022-08-27T23:41:44.063Z,10.67
2022-08-27T23:44:06.117Z,12.63
2022-08-27T23:46:28.634Z,11.03
2022-08-27T23:48:50.446Z,11.53
2022-08-27T23:51:12.443Z,11.87
2022-08-27T23:53:35.094Z,13.50
2022-08-27T23:55:57.008Z,9.70
2022-08-27T23:58:19.363Z,11.70
